createdAt,value
2023-02-14T00:00:49.790Z,100.00
2023-02-14T00:03:16.445Z,100.00
2023-02-14T00:05:43.116Z,100.00
2023-02-14T00:08:09.748Z,100.00
2023-02-14T00:10:36.381Z,100.00
2023-02-14T00:13:05.973Z,100.00
2023-02-14T00:15:32.481Z,100.00
2023-02-14T00:18:03.066Z,100.00
2023-02-14T00:20:29.916Z,100.00
2023-02-14T00:22:56.500Z,100.00
2023-02-14T00:25:23.166Z,100.00
2023-02-14T00:27:49.890Z,100.00
2023-02-14T00:30:16.861Z,100.00
2023-02-14T00:32:43.566Z,100.00
2023-02-14T00:35:11.280Z,100.00
2023-02-14T00:37:40.656Z,100.00
2023-02-14T00:40:07.996Z,100.00
2023-02-14T00:42:34.893Z,100.00
2023-02-14T00:45:01.383Z,100.00
2023-02-14T00:47:28.121Z,100.00
2023-02-14T00:49:54.714Z,100.00
2023-02-14T00:52:21.361Z,100.00
2023-02-14T00:54:47.932Z,100.00
2023-02-14T00:57:14.468Z,100.00
2023-02-14T00:59:59.240Z,100.00
2023-02-14T01:02:26.845Z,100.00
2023-02-14T01:04:53.470Z,100.00
2023-02-14T01:07:22.691Z,100.00
2023-02-14T01:09:49.321Z,100.00
2023-02-14T01:12:15.902Z,100.00
2023-02-14T01:15:01.149Z,100.00
2023-02-14T01:17:36.922Z,100.00
2023-02-14T01:20:04.361Z,100.00
2023-02-14T01:30:51.860Z,100.00
2023-02-14T01:33:18.503Z,100.00
2023-02-14T01:35:45.241Z,100.00
2023-02-14T01:38:11.808Z,100.00
2023-02-14T01:40:44.154Z,100.00
2023-02-14T01:43:17.332Z,100.00
2023-02-14T01:45:44.720Z,100.00
2023-02-14T01:48:13.153Z,100.00
2023-02-14T01:50:45.165Z,100.00
2023-02-14T01:53:24.442Z,100.00
2023-02-14T01:55:58.772Z,100.00
2023-02-14T01:58:29.757Z,100.00
2023-02-14T02:00:59.869Z,100.00
2023-02-14T02:03:32.438Z,100.00
2023-02-14T02:06:05.120Z,100.00
2023-02-14T02:08:35.481Z,100.00
2023-02-14T02:11:02.273Z,100.00
2023-02-14T02:13:28.904Z,100.00
2023-02-14T02:16:26.044Z,100.00
2023-02-14T02:19:13.806Z,100.00
2023-02-14T02:21:59.490Z,100.00
2023-02-14T02:25:00.259Z,100.00
2023-02-14T02:27:45.161Z,100.00
2023-02-14T02:30:20.911Z,100.00
2023-02-14T02:33:19.848Z,100.00
2023-02-14T02:36:16.088Z,100.00
2023-02-14T02:38:52.288Z,100.00
2023-02-14T02:41:35.649Z,100.00
2023-02-14T02:44:14.568Z,100.00
2023-02-14T02:46:49.805Z,100.00
2023-02-14T02:49:44.232Z,100.00
2023-02-14T02:52:50.426Z,100.00
2023-02-14T02:55:25.570Z,100.00
2023-02-14T02:57:55.261Z,100.00
2023-02-14T03:00:24.238Z,100.00
2023-02-14T03:03:13.915Z,100.00
2023-02-14T03:05:41.323Z,100.00
2023-02-14T03:08:07.851Z,100.00
2023-02-14T03:10:38.091Z,100.00
2023-02-14T03:13:10.899Z,100.00
2023-02-14T03:16:08.001Z,100.00
2023-02-14T03:18:58.139Z,100.00
2023-02-14T03:21:54.484Z,100.00
2023-02-14T03:24:46.222Z,100.00
2023-02-14T03:27:24.955Z,100.00
2023-02-14T03:30:03.827Z,100.00
2023-02-14T03:32:51.819Z,100.00
2023-02-14T03:35:34.765Z,100.00
2023-02-14T03:38:15.791Z,100.00
2023-02-14T03:40:58.219Z,100.00
2023-02-14T03:43:31.805Z,100.00
2023-02-14T03:46:28.552Z,100.00
2023-02-14T03:48:58.603Z,100.00
2023-02-14T03:51:27.886Z,100.00
2023-02-14T03:53:57.666Z,100.00
2023-02-14T03:56:36.481Z,100.00
2023-02-14T03:59:10.534Z,100.00
2023-02-14T04:02:01.208Z,100.00
2023-02-14T04:04:32.665Z,100.00
2023-02-14T04:06:59.235Z,100.00
2023-02-14T04:09:25.790Z,100.00
2023-02-14T04:11:52.451Z,100.00
2023-02-14T04:14:19.048Z,100.00
2023-02-14T04:17:04.169Z,100.00
2023-02-14T04:19:30.782Z,100.00
2023-02-14T04:21:57.317Z,100.00
2023-02-14T04:24:23.895Z,100.00
2023-02-14T04:27:09.016Z,100.00
2023-02-14T04:29:49.419Z,100.00
2023-02-14T04:32:21.688Z,100.00
2023-02-14T04:34:48.844Z,100.00
2023-02-14T04:37:17.922Z,100.00
2023-02-14T04:39:44.551Z,100.00
2023-02-14T04:42:11.228Z,100.00
2023-02-14T04:44:40.621Z,100.00
2023-02-14T04:47:07.741Z,100.00
2023-02-14T04:49:35.303Z,100.00
2023-02-14T04:52:02.490Z,100.00
2023-02-14T04:54:29.268Z,100.00
2023-02-14T04:56:55.826Z,100.00
2023-02-14T04:59:24.754Z,100.00
2023-02-14T05:01:52.535Z,100.00
2023-02-14T05:04:19.377Z,100.00
2023-02-14T05:06:46.293Z,100.00
2023-02-14T05:09:13.189Z,100.00
2023-02-14T05:11:39.785Z,100.00
2023-02-14T05:14:06.481Z,100.00
2023-02-14T05:16:33.199Z,100.00
2023-02-14T05:18:59.825Z,100.00
2023-02-14T05:21:26.663Z,100.00
2023-02-14T05:23:53.230Z,100.00
2023-02-14T05:26:19.814Z,100.00
2023-02-14T05:28:46.352Z,100.00
2023-02-14T05:31:12.968Z,100.00
2023-02-14T05:33:39.596Z,100.00
2023-02-14T05:36:06.518Z,100.00
2023-02-14T05:38:33.878Z,100.00
2023-02-14T05:41:02.701Z,100.00
2023-02-14T05:43:30.354Z,100.00
2023-02-14T05:45:57.767Z,100.00
2023-02-14T05:48:24.616Z,100.00
2023-02-14T05:50:51.561Z,100.00
2023-02-14T05:53:18.253Z,100.00
2023-02-14T05:55:45.013Z,100.00
2023-02-14T05:58:12.566Z,100.00
2023-02-14T06:00:41.235Z,100.00
2023-02-14T06:03:08.506Z,100.00
2023-02-14T06:05:35.091Z,100.00
2023-02-14T06:08:01.733Z,100.00
2023-02-14T06:10:28.442Z,100.00
2023-02-14T06:12:57.669Z,100.00
2023-02-14T06:15:24.437Z,100.00
2023-02-14T06:17:52.988Z,100.00
2023-02-14T06:20:19.753Z,100.00
2023-02-14T06:22:46.353Z,100.00
2023-02-14T06:25:13.094Z,100.00
2023-02-14T06:27:39.656Z,100.00
2023-02-14T06:30:06.970Z,100.00
2023-02-14T06:32:33.640Z,100.00
2023-02-14T06:35:00.832Z,100.00
2023-02-14T06:37:27.374Z,100.00
2023-02-14T06:39:53.972Z,100.00
2023-02-14T06:42:20.605Z,100.00
2023-02-14T06:44:47.150Z,100.00
2023-02-14T06:47:13.754Z,100.00
2023-02-14T06:49:40.392Z,100.00
2023-02-14T06:52:07.133Z,100.00
2023-02-14T06:54:33.776Z,100.00
2023-02-14T06:57:00.544Z,100.00
2023-02-14T06:59:27.193Z,100.00
2023-02-14T07:01:53.994Z,100.00
2023-02-14T07:04:20.698Z,100.00
2023-02-14T07:06:47.370Z,100.00
2023-02-14T07:09:18.242Z,100.00
2023-02-14T07:11:45.759Z,100.00
2023-02-14T07:14:12.685Z,100.00
2023-02-14T07:16:39.344Z,100.00
2023-02-14T07:19:06.281Z,100.00
2023-02-14T07:21:32.854Z,100.00
2023-02-14T07:23:59.478Z,100.00
2023-02-14T07:26:26.095Z,100.00
2023-02-14T07:28:52.724Z,100.00
2023-02-14T07:31:23.547Z,100.00
2023-02-14T07:33:51.577Z,100.00
2023-02-14T07:36:18.869Z,100.00
2023-02-14T07:38:45.493Z,100.00
2023-02-14T07:41:12.131Z,100.00
2023-02-14T07:43:39.740Z,100.00
2023-02-14T07:46:06.925Z,100.00
2023-02-14T07:48:34.450Z,100.00
2023-02-14T07:51:01.807Z,100.00
2023-02-14T07:53:28.683Z,100.00
2023-02-14T07:55:55.421Z,100.00
2023-02-14T07:58:22.092Z,100.00
2023-02-14T08:00:48.881Z,100.00
2023-02-14T08:03:16.104Z,100.00
2023-02-14T08:05:43.086Z,100.00
2023-02-14T08:08:09.728Z,100.00
2023-02-14T08:10:36.311Z,100.00
2023-02-14T08:13:03.647Z,100.00
2023-02-14T08:15:51.507Z,100.00
2023-02-14T08:18:19.383Z,100.00
2023-02-14T08:20:49.744Z,100.00
2023-02-14T08:23:18.107Z,100.00
2023-02-14T08:25:45.065Z,100.00
2023-02-14T08:28:13.673Z,100.00
2023-02-14T08:30:41.387Z,100.00
2023-02-14T08:33:08.207Z,100.00
2023-02-14T08:35:35.937Z,100.00
2023-02-14T08:38:03.245Z,100.00
2023-02-14T08:40:30.434Z,100.00
2023-02-14T08:42:57.048Z,100.00
2023-02-14T08:45:23.644Z,100.00
2023-02-14T08:47:50.635Z,100.00
2023-02-14T08:50:18.883Z,100.00
2023-02-14T08:52:45.939Z,100.00
2023-02-14T08:55:13.754Z,100.00
2023-02-14T08:57:40.742Z,100.00
2023-02-14T09:00:09.872Z,100.00
2023-02-14T09:02:36.641Z,100.00
2023-02-14T09:05:03.658Z,100.00
2023-02-14T09:07:30.492Z,100.00
2023-02-14T09:09:57.086Z,100.00
2023-02-14T09:12:23.715Z,100.00
2023-02-14T09:14:50.293Z,100.00
2023-02-14T09:17:16.964Z,100.00
2023-02-14T09:19:43.610Z,100.00
2023-02-14T09:22:11.465Z,100.00
2023-02-14T09:24:40.071Z,100.00
2023-02-14T09:27:07.656Z,100.00
2023-02-14T09:29:34.626Z,100.00
2023-02-14T09:32:02.561Z,100.00
2023-02-14T09:34:30.048Z,100.00
2023-02-14T09:36:56.764Z,100.00
2023-02-14T09:39:23.600Z,100.00
2023-02-14T09:42:14.957Z,100.00
2023-02-14T09:44:51.721Z,99.46
2023-02-14T09:47:33.309Z,98.50
2023-02-14T09:50:00.557Z,97.61
2023-02-14T09:52:29.922Z,98.37
2023-02-14T09:55:01.203Z,97.88
2023-02-14T09:57:45.030Z,98.21
2023-02-14T10:00:34.352Z,98.90
2023-02-14T10:03:09.873Z,97.47
2023-02-14T10:05:44.189Z,97.46
2023-02-14T10:08:29.421Z,95.74
2023-02-14T10:11:06.317Z,94.67
2023-02-14T10:13:46.209Z,94.95
2023-02-14T10:16:37.680Z,94.44
2023-02-14T10:19:13.914Z,92.78
2023-02-14T10:21:48.117Z,91.99
2023-02-14T10:24:27.564Z,93.70
2023-02-14T10:27:03.156Z,92.41
2023-02-14T10:29:30.059Z,92.17
2023-02-14T10:32:00.312Z,91.73
2023-02-14T10:34:38.925Z,86.75
2023-02-14T10:37:31.987Z,85.77
2023-02-14T10:40:01.552Z,85.42
2023-02-14T10:42:45.581Z,87.24
2023-02-14T10:45:34.353Z,85.85
2023-02-14T10:48:21.141Z,87.43
2023-02-14T10:50:50.759Z,83.79
2023-02-14T10:53:17.311Z,84.79
2023-02-14T10:55:50.332Z,85.30
2023-02-14T10:58:21.134Z,84.38
2023-02-14T11:01:10.063Z,80.12
2023-02-14T11:03:39.333Z,81.13
2023-02-14T11:06:07.146Z,82.50
2023-02-14T11:08:36.597Z,78.96
2023-02-14T11:11:13.813Z,78.22
2023-02-14T11:13:41.137Z,72.41
2023-02-14T11:16:12.882Z,77.61
2023-02-14T11:18:41.107Z,75.69
2023-02-14T11:21:12.134Z,71.14
2023-02-14T11:23:38.717Z,73.04
2023-02-14T11:26:11.739Z,70.93
2023-02-14T11:28:49.421Z,70.57
2023-02-14T11:31:26.126Z,69.13
2023-02-14T11:33:54.245Z,71.26
2023-02-14T11:36:21.563Z,68.83
2023-02-14T11:39:03.081Z,70.24
2023-02-14T11:41:50.617Z,72.43
2023-02-14T11:44:26.981Z,66.73
2023-02-14T11:46:56.038Z,68.17
2023-02-14T11:49:32.809Z,63.06
2023-02-14T11:52:15.360Z,65.38
2023-02-14T11:54:44.857Z,65.15
2023-02-14T11:57:33.305Z,62.40
2023-02-14T12:00:04.719Z,63.92
2023-02-14T12:02:43.522Z,62.74
2023-02-14T12:05:19.042Z,64.84
2023-02-14T12:07:47.820Z,62.76
2023-02-14T12:10:17.376Z,59.74
2023-02-14T12:13:00.504Z,63.19
2023-02-14T12:15:27.108Z,57.50
2023-02-14T12:18:02.495Z,59.77
2023-02-14T12:20:40.739Z,58.40
2023-02-14T12:23:18.247Z,58.26
2023-02-14T12:25:57.784Z,59.62
2023-02-14T12:28:44.653Z,55.74
2023-02-14T12:31:13.299Z,58.16
2023-02-14T12:33:40.878Z,59.84
2023-02-14T12:36:36.267Z,58.72
2023-02-14T12:39:23.234Z,54.94
2023-02-14T12:41:52.813Z,56.48
2023-02-14T12:44:38.198Z,59.05
2023-02-14T12:47:32.218Z,57.71
2023-02-14T12:50:03.879Z,58.69
2023-02-14T12:52:33.492Z,56.42
2023-02-14T12:55:03.074Z,58.27
2023-02-14T12:57:48.119Z,53.30
2023-02-14T13:01:07.333Z,55.79
2023-02-14T13:04:10.746Z,58.32
2023-02-14T13:06:42.860Z,56.48
2023-02-14T13:09:27.140Z,55.83
2023-02-14T13:12:31.791Z,54.39
2023-02-14T13:15:29.695Z,56.94
2023-02-14T13:18:03.652Z,55.05
2023-02-14T13:20:48.056Z,56.05
2023-02-14T13:23:20.699Z,56.11
2023-02-14T13:25:54.353Z,55.60
2023-02-14T13:28:22.008Z,56.11
2023-02-14T13:30:48.777Z,58.29
2023-02-14T13:33:40.639Z,56.41
2023-02-14T13:36:10.125Z,53.14
2023-02-14T13:38:43.503Z,53.72
2023-02-14T13:41:11.087Z,54.12
2023-02-14T13:44:01.762Z,53.42
2023-02-14T13:46:34.431Z,53.19
2023-02-14T13:49:15.092Z,51.75
2023-02-14T13:52:01.273Z,52.90
2023-02-14T13:54:35.836Z,53.17
2023-02-14T13:57:24.856Z,52.18
2023-02-14T14:00:19.553Z,51.54
2023-02-14T14:02:50.020Z,51.43
2023-02-14T14:05:32.478Z,51.77
2023-02-14T14:08:38.767Z,52.50
2023-02-14T14:11:33.271Z,53.38
2023-02-14T14:14:01.778Z,51.00
2023-02-14T14:16:35.135Z,52.64
2023-02-14T14:19:24.693Z,52.69
2023-02-14T14:22:01.770Z,53.53
2023-02-14T14:24:34.363Z,51.83
2023-02-14T14:27:05.903Z,52.84
2023-02-14T14:29:46.821Z,53.49
2023-02-14T14:32:37.817Z,53.63
2023-02-14T14:35:23.224Z,53.28
2023-02-14T14:37:57.245Z,53.26
2023-02-14T14:40:31.678Z,52.71
2023-02-14T14:43:06.356Z,53.28
2023-02-14T14:45:33.000Z,54.45
2023-02-14T14:48:08.259Z,54.97
2023-02-14T14:50:36.512Z,53.54
2023-02-14T14:53:09.725Z,52.43
2023-02-14T14:55:38.188Z,51.75
2023-02-14T14:58:08.990Z,51.41
2023-02-14T15:00:42.497Z,52.00
2023-02-14T15:03:11.955Z,53.97
2023-02-14T15:05:50.212Z,51.69
2023-02-14T15:08:27.784Z,52.07
2023-02-14T15:11:02.643Z,51.89
2023-02-14T15:13:50.655Z,51.61
2023-02-14T15:16:18.527Z,51.45
2023-02-14T15:18:45.784Z,51.59
2023-02-14T15:21:13.647Z,51.73
2023-02-14T15:23:43.979Z,53.24
2023-02-14T15:26:18.152Z,53.33
2023-02-14T15:28:45.056Z,52.63
2023-02-14T15:31:12.014Z,52.83
2023-02-14T15:33:39.204Z,54.40
2023-02-14T15:36:15.377Z,52.87
2023-02-14T15:38:43.354Z,52.74
2023-02-14T15:41:10.335Z,55.00
2023-02-14T15:43:37.860Z,54.97
2023-02-14T15:46:36.940Z,55.68
2023-02-14T15:49:10.637Z,56.37
2023-02-14T15:51:38.478Z,56.85
2023-02-14T15:54:31.145Z,56.47
2023-02-14T15:56:58.805Z,57.40
2023-02-14T15:59:29.803Z,57.87
2023-02-14T16:02:17.192Z,57.43
2023-02-14T16:04:44.320Z,57.70
2023-02-14T16:07:26.639Z,59.25
2023-02-14T16:10:18.156Z,61.31
2023-02-14T16:12:57.857Z,61.97
2023-02-14T16:15:38.791Z,62.48
2023-02-14T16:18:32.020Z,63.82
2023-02-14T16:21:10.921Z,64.62
2023-02-14T16:23:38.013Z,65.96
2023-02-14T16:26:08.399Z,66.44
2023-02-14T16:28:36.920Z,67.75
2023-02-14T16:31:10.130Z,68.48
2023-02-14T16:33:39.615Z,68.94
2023-02-14T16:36:27.981Z,71.86
2023-02-14T16:38:55.575Z,72.93
2023-02-14T16:41:28.667Z,73.29
2023-02-14T16:43:56.308Z,74.36
2023-02-14T16:46:26.177Z,74.94
2023-02-14T16:48:53.141Z,74.64
2023-02-14T16:51:25.804Z,75.65
2023-02-14T16:53:53.687Z,75.72
2023-02-14T16:56:27.921Z,76.78
2023-02-14T16:58:57.478Z,77.41
2023-02-14T17:01:24.544Z,79.26
2023-02-14T17:03:51.244Z,78.54
2023-02-14T17:06:21.623Z,79.59
2023-02-14T17:08:50.827Z,81.10
2023-02-14T17:11:17.634Z,80.88
2023-02-14T17:13:45.519Z,80.74
2023-02-14T17:16:15.582Z,80.12
2023-02-14T17:18:47.536Z,80.70
2023-02-14T17:21:15.874Z,81.36
2023-02-14T17:23:42.495Z,81.67
2023-02-14T17:26:11.124Z,81.28
2023-02-14T17:28:37.991Z,81.89
2023-02-14T17:31:04.965Z,81.89
2023-02-14T17:33:33.204Z,82.71
2023-02-14T17:36:12.075Z,82.34
2023-02-14T17:38:39.777Z,85.20
2023-02-14T17:41:19.353Z,85.62
2023-02-14T17:43:46.190Z,86.07
2023-02-14T17:46:14.258Z,85.86
2023-02-14T17:48:42.097Z,84.49
2023-02-14T17:51:09.583Z,85.40
2023-02-14T17:53:36.278Z,84.90
2023-02-14T17:56:06.774Z,84.71
2023-02-14T17:58:33.437Z,84.56
2023-02-14T18:01:09.069Z,85.30
2023-02-14T18:03:36.092Z,85.53
2023-02-14T18:06:03.924Z,85.37
2023-02-14T18:08:33.960Z,86.12
2023-02-14T18:11:03.924Z,85.70
2023-02-14T18:13:31.695Z,86.04
2023-02-14T18:16:01.945Z,86.31
2023-02-14T18:18:28.514Z,86.66
2023-02-14T18:20:57.190Z,88.26
2023-02-14T18:23:23.812Z,88.32
2023-02-14T18:25:55.961Z,88.72
2023-02-14T18:28:25.021Z,88.89
2023-02-14T18:30:52.671Z,88.82
2023-02-14T18:33:20.175Z,88.74
2023-02-14T18:35:47.329Z,89.15
2023-02-14T18:38:14.344Z,89.08
2023-02-14T18:40:41.440Z,89.61
2023-02-14T18:43:08.001Z,90.45
2023-02-14T18:45:39.350Z,90.60
2023-02-14T18:48:06.249Z,91.61
2023-02-14T18:50:34.031Z,93.29
2023-02-14T18:53:00.816Z,94.42
2023-02-14T18:55:28.731Z,94.00
2023-02-14T18:57:55.384Z,93.86
2023-02-14T19:00:22.684Z,93.40
2023-02-14T19:02:49.295Z,92.90
2023-02-14T19:05:15.866Z,92.56
2023-02-14T19:07:42.401Z,92.25
2023-02-14T19:10:09.988Z,92.55
2023-02-14T19:12:36.869Z,92.13
2023-02-14T19:15:03.653Z,92.36
2023-02-14T19:17:30.252Z,92.18
2023-02-14T19:19:57.237Z,92.27
2023-02-14T19:22:23.889Z,92.58
2023-02-14T19:24:52.996Z,92.87
2023-02-14T19:27:21.479Z,94.11
2023-02-14T19:29:48.328Z,95.02
2023-02-14T19:32:15.022Z,95.54
2023-02-14T19:34:41.605Z,95.69
2023-02-14T19:37:08.305Z,95.22
2023-02-14T19:39:34.956Z,96.01
2023-02-14T19:42:02.239Z,95.75
2023-02-14T19:44:30.963Z,97.35
2023-02-14T19:47:00.206Z,97.08
2023-02-14T19:49:28.430Z,98.00
2023-02-14T19:51:55.644Z,97.64
2023-02-14T19:54:25.538Z,97.91
2023-02-14T19:56:53.422Z,97.14
2023-02-14T19:59:21.761Z,97.72
2023-02-14T20:01:51.236Z,97.91
2023-02-14T20:04:29.332Z,97.75
2023-02-14T20:06:56.659Z,97.77
2023-02-14T20:09:24.153Z,99.25
2023-02-14T20:11:54.412Z,99.16
2023-02-14T20:14:47.131Z,99.19
2023-02-14T20:17:17.939Z,98.12
2023-02-14T20:19:44.501Z,98.22
2023-02-14T20:22:11.081Z,97.89
2023-02-14T20:24:37.795Z,98.98
2023-02-14T20:27:04.536Z,99.53
2023-02-14T20:29:31.168Z,99.49
2023-02-14T20:31:59.901Z,99.24
2023-02-14T20:34:27.239Z,99.34
2023-02-14T20:36:55.545Z,99.54
2023-02-14T20:39:26.761Z,99.73
2023-02-14T20:41:53.955Z,99.77
2023-02-14T20:44:21.708Z,99.11
2023-02-14T20:46:51.563Z,99.04
2023-02-14T20:49:19.610Z,99.49
2023-02-14T20:51:49.573Z,99.19
2023-02-14T20:54:20.448Z,99.28
2023-02-14T20:56:47.428Z,99.10
2023-02-14T20:59:15.154Z,98.16
2023-02-14T21:01:41.775Z,98.46
2023-02-14T21:04:08.548Z,98.44
2023-02-14T21:06:35.778Z,98.39
2023-02-14T21:09:03.764Z,98.18
2023-02-14T21:11:30.596Z,98.02
2023-02-14T21:13:59.864Z,98.58
2023-02-14T21:16:27.574Z,98.88
2023-02-14T21:18:59.046Z,98.92
2023-02-14T21:21:36.340Z,98.61
2023-02-14T21:24:12.573Z,98.68
2023-02-14T21:26:39.569Z,99.13
2023-02-14T21:29:06.844Z,98.97
2023-02-14T21:31:34.366Z,98.94
2023-02-14T21:34:02.582Z,99.52
2023-02-14T21:36:32.146Z,99.83
2023-02-14T21:38:59.141Z,100.00
2023-02-14T21:41:28.313Z,100.00
2023-02-14T21:43:58.396Z,100.00
2023-02-14T21:46:29.332Z,100.00
2023-02-14T21:49:16.623Z,100.00
2023-02-14T21:51:43.810Z,100.00
2023-02-14T21:54:11.231Z,100.00
2023-02-14T21:56:39.177Z,100.00
2023-02-14T21:59:06.066Z,100.00
2023-02-14T22:01:34.868Z,100.00
2023-02-14T22:04:07.790Z,100.00
2023-02-14T22:06:37.221Z,100.00
2023-02-14T22:09:04.447Z,100.00
2023-02-14T22:11:31.429Z,100.00
2023-02-14T22:13:59.209Z,100.00
2023-02-14T22:16:25.866Z,100.00
2023-02-14T22:18:52.831Z,100.00
2023-02-14T22:21:22.593Z,100.00
2023-02-14T22:23:49.603Z,100.00
2023-02-14T22:26:22.944Z,100.00
2023-02-14T22:28:51.008Z,100.00
2023-02-14T22:31:18.887Z,100.00
2023-02-14T22:33:46.857Z,100.00
2023-02-14T22:36:13.844Z,100.00
2023-02-14T22:38:40.524Z,100.00
2023-02-14T22:41:09.154Z,100.00
2023-02-14T22:43:36.746Z,100.00
2023-02-14T22:46:06.044Z,100.00
2023-02-14T22:48:34.142Z,100.00
2023-02-14T22:51:26.681Z,100.00
2023-02-14T22:53:59.114Z,100.00
2023-02-14T22:56:34.294Z,100.00
2023-02-14T22:59:06.415Z,100.00
2023-02-14T23:01:34.368Z,100.00
2023-02-14T23:04:03.390Z,100.00
2023-02-14T23:06:32.431Z,100.00
2023-02-14T23:08:59.309Z,100.00
2023-02-14T23:11:29.014Z,100.00
2023-02-14T23:14:14.678Z,100.00
2023-02-14T23:17:00.588Z,100.00
2023-02-14T23:19:48.865Z,100.00
2023-02-14T23:22:21.443Z,100.00
2023-02-14T23:24:50.029Z,100.00
2023-02-14T23:27:19.147Z,100.00
2023-02-14T23:29:46.015Z,100.00
2023-02-14T23:32:12.960Z,100.00
2023-02-14T23:34:42.365Z,100.00
2023-02-14T23:37:10.292Z,100.00
2023-02-14T23:39:37.702Z,100.00
2023-02-14T23:42:10.618Z,100.00
2023-02-14T23:44:37.468Z,100.00
2023-02-14T23:47:06.315Z,100.00
2023-02-14T23:49:34.222Z,100.00
2023-02-14T23:52:01.714Z,100.00
2023-02-14T23:54:28.338Z,100.00
2023-02-14T23:56:55.406Z,100.00
2023-02-14T23:59:22.194Z,100.00
